Raleigh Durham International Airport
KRDU : rendu visible

Aérodrome :











RETROUVEZ-NOUS SUR...

 
LOGIN :

S'inscrire | Disclaimer

   EN    FR    IT 

 









Légende :    VFR   VFR Marginal   IFR   IFR Intensif   IFR Très Intensif
Visi : 
Plafond : 
>= 8 km
>= 3000ft
5 à 8 km
1000 à 3000 ft
1500m à 5 km
500 à 1000 ft
800 à 1500m
200 à 500 ft
< 800m
< 200 ft
Symboles :   Orages  Brouillard  Fortes neiges  Fortes précipitations  Vent > 20 kt







- Altitude de l'aérodrome : 435 ft
- Code IATA : RDU


KRDU - Raleigh Durham International

DERNIER METAR :
  • 191751Z 18007KT 10SM SCT045 SCT250 34/22 A3005 RMK AO2 LTG DSNT W AND NW SLP169 T03440222 10344 20250 58007

METARs EXPIRÉS :
  • 191651Z 25006KT 10SM FEW035 FEW250 33/23 A3006 RMK AO2 SLP174 T03280233
  • 191551Z 23006KT 10SM FEW030 FEW250 32/23 A3007 RMK AO2 SLP177 T03220233

TAF KRDU
Valide du 19 à 18h jusqu'au 20 à 18h UTC


191726Z 1918/2018 25006KT P6SM FEW035
FM192200 VRB05KT P6SM VCTS SCT200CB
FM200200 VRB04KT P6SM BKN200
FM201100 VRB03KT 6SM BR SCT200
FM201300 24005KT P6SM BKN250
Pas de NOTAMs connus pour ce terrain.



MET'MAP, la Météo Aéronautique d'un coup d'oeil ! - Copyright ORBIFLY Décembre 2007 - Disclaimer

ORBIFLY MET'MAP TEAM :

Programmation & Développement : Alexandra Zaïnal
Conception & Développement : Baudouin d'Aumeries
Co-Programmation & Développement : Marc-Olivier Méhu
Soutien technique & logistique : Manuel Goepfert

Contact : metmap@orbifly.com




SOURCES & CREDITS :

   NOAA       Earth
Advisory